createdAt,value
2017-09-27T00:00:23.226Z,90.30
2017-09-27T00:02:51.482Z,90.20
2017-09-27T00:05:20.620Z,90.30
2017-09-27T00:07:48.875Z,90.30
2017-09-27T00:10:17.148Z,90.30
2017-09-27T00:12:46.194Z,90.40
2017-09-27T00:15:14.521Z,90.30
2017-09-27T00:17:42.796Z,90.30
2017-09-27T00:20:11.829Z,90.60
2017-09-27T00:22:40.152Z,90.30
2017-09-27T00:25:08.449Z,90.40
2017-09-27T00:27:36.788Z,90.40
2017-09-27T00:30:05.063Z,90.40
2017-09-27T00:32:33.345Z,90.50
2017-09-27T00:35:01.622Z,90.50
2017-09-27T00:37:29.883Z,90.50
2017-09-27T00:39:58.137Z,90.60
2017-09-27T00:42:26.457Z,90.70
2017-09-27T00:44:54.754Z,90.60
2017-09-27T00:47:23.028Z,90.60
2017-09-27T00:49:51.283Z,90.60
2017-09-27T00:52:20.317Z,90.60
2017-09-27T00:54:48.597Z,90.60
2017-09-27T00:57:16.870Z,90.50
2017-09-27T00:59:45.122Z,90.60
2017-09-27T01:02:14.151Z,90.60
2017-09-27T01:04:42.398Z,90.60
2017-09-27T01:07:11.467Z,90.40
2017-09-27T01:09:39.819Z,90.40
2017-09-27T01:12:08.670Z,90.30
2017-09-27T01:14:37.696Z,90.80
2017-09-27T01:17:06.037Z,90.40
2017-09-27T01:19:35.792Z,90.70
2017-09-27T01:22:04.096Z,90.70
2017-09-27T01:24:32.382Z,90.80
2017-09-27T01:27:00.658Z,91.00
2017-09-27T01:29:28.912Z,91.10
2017-09-27T01:31:57.225Z,91.10
2017-09-27T01:34:25.478Z,91.00
2017-09-27T01:36:53.750Z,91.00
2017-09-27T01:39:22.786Z,91.00
2017-09-27T01:41:51.066Z,91.00
2017-09-27T01:44:19.346Z,90.90
2017-09-27T01:46:47.615Z,91.00
2017-09-27T01:49:15.867Z,91.10
2017-09-27T01:51:44.899Z,91.30
2017-09-27T01:54:13.155Z,91.20
2017-09-27T01:56:41.411Z,91.30
2017-09-27T01:59:10.442Z,91.70
2017-09-27T02:01:38.699Z,91.40
2017-09-27T02:04:07.025Z,91.40
2017-09-27T02:06:35.334Z,91.40
2017-09-27T02:09:03.629Z,91.40
2017-09-27T02:11:31.858Z,91.50
2017-09-27T02:14:00.156Z,91.50
2017-09-27T02:16:28.427Z,91.60
2017-09-27T02:18:56.686Z,91.50
2017-09-27T02:21:24.943Z,91.40
2017-09-27T02:23:53.974Z,91.40
2017-09-27T02:26:22.231Z,91.40
2017-09-27T02:28:50.558Z,91.50
2017-09-27T02:31:18.821Z,91.60
2017-09-27T02:33:47.095Z,91.70
2017-09-27T02:36:15.356Z,91.60
2017-09-27T02:38:43.626Z,91.70
2017-09-27T02:41:12.630Z,91.80
2017-09-27T02:43:40.899Z,91.80
2017-09-27T02:46:09.939Z,92.00
2017-09-27T02:48:38.211Z,92.00
2017-09-27T02:51:06.501Z,92.10
2017-09-27T02:53:34.763Z,92.10
2017-09-27T02:56:03.067Z,92.10
2017-09-27T02:58:31.315Z,92.10
2017-09-27T03:01:00.347Z,92.10
2017-09-27T03:03:28.599Z,92.10
2017-09-27T03:05:56.881Z,92.10
2017-09-27T03:08:25.191Z,92.20
2017-09-27T03:10:53.474Z,92.10
2017-09-27T03:13:21.728Z,92.00
2017-09-27T03:15:49.994Z,91.90
2017-09-27T03:18:19.011Z,91.90
2017-09-27T03:20:47.305Z,91.90
2017-09-27T03:23:15.591Z,91.90
2017-09-27T03:25:43.858Z,92.00
2017-09-27T03:28:12.148Z,91.90
2017-09-27T03:30:40.421Z,91.70
2017-09-27T03:33:08.744Z,91.70
2017-09-27T03:35:36.972Z,91.60
2017-09-27T03:38:05.261Z,91.80
2017-09-27T03:40:33.565Z,91.80
2017-09-27T03:43:01.827Z,91.90
2017-09-27T03:45:30.107Z,91.90
2017-09-27T03:47:58.403Z,92.00
2017-09-27T03:50:26.651Z,92.00
2017-09-27T03:52:54.918Z,92.10
2017-09-27T03:55:23.940Z,92.30
2017-09-27T03:57:52.226Z,92.30
2017-09-27T04:00:20.515Z,92.30
2017-09-27T04:02:48.798Z,92.50
2017-09-27T04:05:17.084Z,92.50
2017-09-27T04:07:45.334Z,92.50
2017-09-27T04:10:13.647Z,92.60
2017-09-27T04:12:41.918Z,92.60
2017-09-27T04:15:10.186Z,92.70
2017-09-27T04:17:38.489Z,92.60
2017-09-27T04:20:06.804Z,92.50
2017-09-27T04:22:35.025Z,92.40
2017-09-27T04:25:03.292Z,92.30
2017-09-27T04:27:32.347Z,92.60
2017-09-27T04:30:00.610Z,92.20
2017-09-27T04:32:28.863Z,92.20
2017-09-27T04:34:57.895Z,92.10
2017-09-27T04:37:26.181Z,92.10
2017-09-27T04:39:54.452Z,92.10
2017-09-27T04:42:22.724Z,92.20
2017-09-27T04:44:50.983Z,92.10
2017-09-27T04:47:19.238Z,92.10
2017-09-27T04:49:48.277Z,92.50
2017-09-27T04:52:16.527Z,92.10
2017-09-27T04:54:45.565Z,92.20
2017-09-27T04:57:13.819Z,92.20
2017-09-27T04:59:43.081Z,92.20
2017-09-27T05:02:11.352Z,92.20
2017-09-27T05:04:39.618Z,92.20
2017-09-27T05:07:08.667Z,92.20
2017-09-27T05:09:37.117Z,92.10
2017-09-27T05:12:05.382Z,92.10
2017-09-27T05:14:33.662Z,92.10
2017-09-27T05:17:01.923Z,92.10
2017-09-27T05:19:30.222Z,92.20
2017-09-27T05:21:58.482Z,92.10
2017-09-27T05:24:26.736Z,92.50
2017-09-27T05:26:55.780Z,92.20
2017-09-27T05:29:24.063Z,92.20
2017-09-27T05:31:52.322Z,92.10
2017-09-27T05:34:20.590Z,92.20
2017-09-27T05:36:49.623Z,92.20
2017-09-27T05:39:17.906Z,92.20
2017-09-27T05:41:46.185Z,92.20
2017-09-27T05:44:14.446Z,92.20
2017-09-27T05:46:42.711Z,92.20
2017-09-27T05:49:10.963Z,92.30
2017-09-27T05:51:39.235Z,92.30
2017-09-27T05:54:07.490Z,92.30
2017-09-27T05:56:35.771Z,92.20
2017-09-27T05:59:04.052Z,92.40
2017-09-27T06:01:32.339Z,92.40
2017-09-27T06:04:00.582Z,92.40
2017-09-27T06:06:28.889Z,92.40
2017-09-27T06:08:57.167Z,92.30
2017-09-27T06:11:25.446Z,92.20
2017-09-27T06:13:53.735Z,92.10
2017-09-27T06:16:21.997Z,92.20
2017-09-27T06:18:50.253Z,92.00
2017-09-27T06:21:19.291Z,92.00
2017-09-27T06:23:47.564Z,91.90
2017-09-27T06:26:15.894Z,91.70
2017-09-27T06:28:44.264Z,91.60
2017-09-27T06:31:12.542Z,91.40
2017-09-27T06:33:40.839Z,91.30
2017-09-27T06:36:09.908Z,91.50
2017-09-27T06:38:38.182Z,91.20
2017-09-27T06:41:06.432Z,91.10
2017-09-27T06:43:34.704Z,91.00
2017-09-27T06:46:03.748Z,90.50
2017-09-27T06:48:32.048Z,90.50
2017-09-27T06:51:00.290Z,90.50
2017-09-27T06:53:28.578Z,90.40
2017-09-27T06:55:56.860Z,90.30
2017-09-27T06:58:25.132Z,90.20
2017-09-27T07:00:53.406Z,90.10
2017-09-27T07:03:21.663Z,90.20
2017-09-27T07:05:51.111Z,90.00
2017-09-27T07:08:19.394Z,90.00
2017-09-27T07:10:47.659Z,90.00
2017-09-27T07:13:15.927Z,89.90
2017-09-27T07:15:44.210Z,90.00
2017-09-27T07:18:12.519Z,89.60
2017-09-27T07:20:40.772Z,89.80
2017-09-27T07:23:09.044Z,89.50
2017-09-27T07:25:37.300Z,89.10
2017-09-27T07:28:06.330Z,89.50
2017-09-27T07:30:34.578Z,88.50
2017-09-27T07:33:02.851Z,87.80
2017-09-27T07:35:31.099Z,87.30
2017-09-27T07:37:59.374Z,86.70
2017-09-27T07:40:27.641Z,86.30
2017-09-27T07:42:55.894Z,85.50
2017-09-27T07:45:24.921Z,85.50
2017-09-27T07:47:53.178Z,85.40
2017-09-27T07:50:22.230Z,82.60
2017-09-27T07:52:50.479Z,82.50
2017-09-27T07:55:18.748Z,81.80
2017-09-27T07:57:48.291Z,80.90
2017-09-27T08:00:16.819Z,80.80
2017-09-27T08:02:45.044Z,81.00
2017-09-27T08:05:13.353Z,81.30
2017-09-27T08:07:41.597Z,81.10
2017-09-27T08:10:09.907Z,80.30
2017-09-27T08:12:38.392Z,79.60
2017-09-27T08:15:06.676Z,78.00
2017-09-27T08:17:34.927Z,77.40
2017-09-27T08:20:03.218Z,76.60
2017-09-27T08:22:31.510Z,75.10
2017-09-27T08:24:59.793Z,73.50
2017-09-27T08:27:28.042Z,72.30
2017-09-27T08:29:57.178Z,70.00
2017-09-27T08:32:25.423Z,70.00
2017-09-27T08:34:54.764Z,67.00
2017-09-27T08:37:23.040Z,67.00
2017-09-27T08:39:51.326Z,66.20
2017-09-27T08:42:19.625Z,65.30
2017-09-27T08:44:47.911Z,64.80
2017-09-27T08:47:16.196Z,64.00
2017-09-27T08:49:44.611Z,63.80
2017-09-27T08:52:12.846Z,63.30
2017-09-27T08:54:41.129Z,62.80
2017-09-27T08:57:09.436Z,62.70
2017-09-27T08:59:37.686Z,62.00
2017-09-27T09:02:05.951Z,61.80
2017-09-27T09:04:34.202Z,62.10
2017-09-27T09:07:03.234Z,61.80
2017-09-27T09:09:31.529Z,61.00
2017-09-27T09:11:59.794Z,60.90
2017-09-27T09:14:28.051Z,60.90
2017-09-27T09:16:57.089Z,60.40
2017-09-27T09:19:25.371Z,59.70
2017-09-27T09:21:53.639Z,60.50
2017-09-27T09:24:21.894Z,60.60
2017-09-27T09:26:50.979Z,60.40
2017-09-27T09:29:19.212Z,60.40
2017-09-27T09:31:47.477Z,59.10
2017-09-27T09:34:15.795Z,59.80
2017-09-27T09:36:44.063Z,60.20
2017-09-27T09:39:12.346Z,59.90
2017-09-27T09:41:40.627Z,59.40
2017-09-27T09:44:08.879Z,59.00
2017-09-27T09:46:37.137Z,59.20
2017-09-27T09:49:06.280Z,58.40
2017-09-27T09:51:34.532Z,58.30
2017-09-27T09:54:02.840Z,58.30
2017-09-27T09:56:31.096Z,58.10
2017-09-27T09:58:59.360Z,58.50
2017-09-27T10:01:28.403Z,58.90
2017-09-27T10:03:56.724Z,58.80
2017-09-27T10:06:24.949Z,59.50
2017-09-27T10:08:53.224Z,58.80
2017-09-27T10:11:21.495Z,59.60
2017-09-27T10:13:49.803Z,59.20
2017-09-27T10:16:18.090Z,58.60
2017-09-27T10:18:46.372Z,58.30
2017-09-27T10:21:14.621Z,57.70
2017-09-27T10:23:42.954Z,57.70
2017-09-27T10:26:11.246Z,57.80
2017-09-27T10:28:39.595Z,57.50
2017-09-27T10:31:08.464Z,57.50
2017-09-27T10:33:36.984Z,56.90
2017-09-27T10:36:05.242Z,56.30
2017-09-27T10:38:33.544Z,56.30
2017-09-27T10:41:01.828Z,55.40
2017-09-27T10:43:30.099Z,56.10
2017-09-27T10:45:58.355Z,57.20
2017-09-27T10:48:27.399Z,58.10
2017-09-27T10:50:55.645Z,58.00
2017-09-27T10:53:23.896Z,57.80
2017-09-27T10:55:52.942Z,58.10
2017-09-27T10:58:21.187Z,58.20
2017-09-27T11:00:50.210Z,57.90
2017-09-27T11:03:18.503Z,57.90
2017-09-27T11:05:46.783Z,57.30
2017-09-27T11:08:15.040Z,58.20
2017-09-27T11:10:43.380Z,57.80
2017-09-27T11:13:12.427Z,57.80
2017-09-27T11:15:40.745Z,57.70
2017-09-27T11:18:09.050Z,56.90
2017-09-27T11:20:38.951Z,56.10
2017-09-27T11:23:07.192Z,56.10
2017-09-27T11:25:35.488Z,56.00
2017-09-27T11:28:03.768Z,55.70
2017-09-27T11:30:32.050Z,55.50
2017-09-27T11:33:00.305Z,55.40
2017-09-27T11:35:28.566Z,55.70
2017-09-27T11:37:57.584Z,54.70
2017-09-27T11:40:25.853Z,54.70
2017-09-27T11:42:54.874Z,54.30
2017-09-27T11:45:23.144Z,54.20
2017-09-27T11:47:51.400Z,54.70
2017-09-27T11:50:20.449Z,55.10
2017-09-27T11:52:48.730Z,55.00
2017-09-27T11:55:16.999Z,55.10
2017-09-27T11:57:45.256Z,55.60
2017-09-27T12:00:14.268Z,55.80
2017-09-27T12:02:42.563Z,55.70
2017-09-27T12:05:10.821Z,56.00
2017-09-27T12:07:39.854Z,56.50
2017-09-27T12:10:08.120Z,56.50
2017-09-27T12:12:36.387Z,56.40
2017-09-27T12:15:05.435Z,56.20
2017-09-27T12:17:33.800Z,56.20
2017-09-27T12:20:02.097Z,56.20
2017-09-27T12:22:30.374Z,56.60
2017-09-27T12:24:58.655Z,56.90
2017-09-27T12:27:26.930Z,55.40
2017-09-27T12:29:55.179Z,56.00
2017-09-27T12:32:24.241Z,55.60
2017-09-27T12:34:52.475Z,55.60
2017-09-27T12:37:20.787Z,56.50
2017-09-27T12:39:49.123Z,57.50
2017-09-27T12:42:18.151Z,57.90
2017-09-27T12:44:46.710Z,57.90
2017-09-27T12:47:15.782Z,58.00
2017-09-27T12:49:44.028Z,57.90
2017-09-27T12:52:12.289Z,58.60
2017-09-27T12:54:40.591Z,57.60
2017-09-27T12:57:08.917Z,58.00
2017-09-27T12:59:37.180Z,58.20
2017-09-27T13:02:05.463Z,57.90
2017-09-27T13:04:35.331Z,58.10
2017-09-27T13:07:03.610Z,58.10
2017-09-27T13:09:31.917Z,57.90
2017-09-27T13:12:00.172Z,58.30
2017-09-27T13:14:28.474Z,58.00
2017-09-27T13:16:56.744Z,57.40
2017-09-27T13:19:25.032Z,57.40
2017-09-27T13:21:53.390Z,57.90
2017-09-27T13:24:22.421Z,57.20
2017-09-27T13:26:50.683Z,57.10
2017-09-27T13:29:18.955Z,57.20
2017-09-27T13:31:47.967Z,57.90
2017-09-27T13:34:16.245Z,57.80
2017-09-27T13:36:45.265Z,58.30
2017-09-27T13:39:13.540Z,58.80
2017-09-27T13:41:41.837Z,58.60
2017-09-27T13:44:10.103Z,58.20
2017-09-27T13:46:38.357Z,57.60
2017-09-27T13:49:07.404Z,57.80
2017-09-27T13:51:35.677Z,57.80
2017-09-27T13:54:04.095Z,57.40
2017-09-27T13:56:32.339Z,57.00
2017-09-27T13:59:00.628Z,57.20
2017-09-27T14:01:28.887Z,57.60
2017-09-27T14:03:57.177Z,57.90
2017-09-27T14:06:25.600Z,58.10
2017-09-27T14:08:54.015Z,58.10
2017-09-27T14:11:23.049Z,58.30
2017-09-27T14:13:51.371Z,58.30
2017-09-27T14:16:19.638Z,57.80
2017-09-27T14:18:47.986Z,57.90
2017-09-27T14:21:16.310Z,58.70
2017-09-27T14:23:44.817Z,59.20
2017-09-27T14:26:13.139Z,59.30
2017-09-27T14:28:41.415Z,59.20
2017-09-27T14:31:09.675Z,59.30
2017-09-27T14:33:38.028Z,59.50
2017-09-27T14:36:06.363Z,59.80
2017-09-27T14:38:34.613Z,59.80
2017-09-27T14:41:02.926Z,60.10
2017-09-27T14:43:31.174Z,60.60
2017-09-27T14:46:00.302Z,61.30
2017-09-27T14:48:29.405Z,61.70
2017-09-27T14:50:57.791Z,61.60
2017-09-27T14:53:26.047Z,61.40
2017-09-27T14:55:55.070Z,60.90
2017-09-27T14:58:23.895Z,60.90
2017-09-27T15:00:52.158Z,60.80
2017-09-27T15:03:20.423Z,61.30
2017-09-27T15:05:48.689Z,61.50
2017-09-27T15:08:16.939Z,61.50
2017-09-27T15:10:46.183Z,61.40
2017-09-27T15:13:14.470Z,61.40
2017-09-27T15:15:42.738Z,62.10
2017-09-27T15:18:11.007Z,62.30
2017-09-27T15:20:39.289Z,62.50
2017-09-27T15:23:07.547Z,63.00
2017-09-27T15:25:36.569Z,63.20
2017-09-27T15:30:38.373Z,62.80
2017-09-27T15:33:06.628Z,63.10
2017-09-27T15:35:34.924Z,63.30
2017-09-27T15:38:03.211Z,62.90
2017-09-27T15:40:31.498Z,63.40
2017-09-27T15:42:59.759Z,63.80
2017-09-27T15:45:28.115Z,63.70
2017-09-27T15:47:57.149Z,64.20
2017-09-27T15:50:25.448Z,64.00
2017-09-27T15:52:53.721Z,63.90
2017-09-27T15:55:21.959Z,64.10
2017-09-27T15:57:51.042Z,64.40
2017-09-27T16:00:19.291Z,64.40
2017-09-27T16:02:47.555Z,65.20
2017-09-27T16:05:15.860Z,65.10
2017-09-27T16:07:44.231Z,65.80
2017-09-27T16:10:12.698Z,66.00
2017-09-27T16:12:40.970Z,66.20
2017-09-27T16:15:09.217Z,66.00
2017-09-27T16:17:38.255Z,66.50
2017-09-27T16:20:06.502Z,65.80
2017-09-27T16:22:35.557Z,67.30
2017-09-27T16:25:03.807Z,66.60
2017-09-27T16:27:32.095Z,66.30
2017-09-27T16:30:00.335Z,66.90
2017-09-27T16:32:28.675Z,67.00
2017-09-27T16:34:56.992Z,67.40
2017-09-27T16:37:25.264Z,67.80
2017-09-27T16:39:53.509Z,68.40
2017-09-27T16:42:21.780Z,68.60
2017-09-27T16:44:50.046Z,68.30
2017-09-27T16:47:19.067Z,68.90
2017-09-27T16:49:47.331Z,68.90
2017-09-27T16:52:15.638Z,69.60
2017-09-27T16:54:43.906Z,70.20
2017-09-27T16:57:12.211Z,70.70
2017-09-27T16:59:40.516Z,70.70
2017-09-27T17:02:08.741Z,71.00
2017-09-27T17:04:37.006Z,71.10
2017-09-27T17:07:06.032Z,72.10
2017-09-27T17:09:34.294Z,72.10
2017-09-27T17:12:02.569Z,72.30
2017-09-27T17:14:31.594Z,72.40
2017-09-27T17:16:59.864Z,72.30
2017-09-27T17:19:28.881Z,72.80
2017-09-27T17:21:57.143Z,72.80
2017-09-27T17:24:27.289Z,72.90
2017-09-27T17:26:55.541Z,73.20
2017-09-27T17:29:23.846Z,73.30
2017-09-27T17:31:52.093Z,73.60
2017-09-27T17:34:21.147Z,74.00
2017-09-27T17:36:49.422Z,74.00
2017-09-27T17:39:17.678Z,74.10
2017-09-27T17:41:45.930Z,74.50
2017-09-27T17:44:15.012Z,75.10
2017-09-27T17:46:43.262Z,75.10
2017-09-27T17:49:11.568Z,75.70
2017-09-27T17:51:39.819Z,75.20
2017-09-27T17:54:08.154Z,75.50
2017-09-27T17:56:36.495Z,76.20
2017-09-27T17:59:04.744Z,77.00
2017-09-27T18:01:33.048Z,77.40
2017-09-27T18:04:01.754Z,77.70
2017-09-27T18:06:35.675Z,77.90
2017-09-27T18:09:09.632Z,78.10
2017-09-27T18:15:00.919Z,78.40
2017-09-27T18:17:29.775Z,78.30
2017-09-27T18:19:58.032Z,78.20
2017-09-27T18:22:27.359Z,78.70
2017-09-27T18:24:55.618Z,78.70
2017-09-27T18:27:24.679Z,79.40
2017-09-27T18:29:52.928Z,79.30
2017-09-27T18:32:21.187Z,79.20
2017-09-27T18:34:50.199Z,79.60
2017-09-27T18:37:18.522Z,79.50
2017-09-27T18:39:46.788Z,79.50
2017-09-27T18:42:16.982Z,80.40
2017-09-27T18:44:45.987Z,80.50
2017-09-27T18:47:14.401Z,80.50
2017-09-27T18:49:42.642Z,80.70
2017-09-27T18:52:11.884Z,81.30
2017-09-27T18:54:40.139Z,81.30
2017-09-27T18:57:08.430Z,81.30
2017-09-27T18:59:36.722Z,81.30
2017-09-27T19:02:04.991Z,81.20
2017-09-27T19:04:33.255Z,81.30
2017-09-27T19:07:01.542Z,81.30
2017-09-27T19:09:29.803Z,81.20
2017-09-27T19:11:58.849Z,81.60
2017-09-27T19:14:27.122Z,81.60
2017-09-27T19:16:55.406Z,81.60
2017-09-27T19:19:23.822Z,82.00
2017-09-27T19:21:52.167Z,82.10
2017-09-27T19:24:20.458Z,82.10
2017-09-27T19:26:48.734Z,82.00
2017-09-27T19:29:16.995Z,83.30
2017-09-27T19:31:45.285Z,82.50
2017-09-27T19:34:13.588Z,82.50
2017-09-27T19:36:41.858Z,82.70
2017-09-27T19:39:10.127Z,82.90
2017-09-27T19:41:38.411Z,83.00
2017-09-27T19:44:06.662Z,83.00
2017-09-27T19:46:35.818Z,83.30
2017-09-27T19:49:04.080Z,83.30
2017-09-27T19:51:32.342Z,83.20
2017-09-27T19:54:00.647Z,83.30
2017-09-27T19:56:28.932Z,82.90
2017-09-27T19:58:57.200Z,83.00
2017-09-27T20:01:25.454Z,83.20
2017-09-27T20:03:54.494Z,83.30
2017-09-27T20:06:22.821Z,83.20
2017-09-27T20:08:51.167Z,83.10
2017-09-27T20:11:19.418Z,83.30
2017-09-27T20:13:47.695Z,83.40
2017-09-27T20:16:15.954Z,83.40
2017-09-27T20:18:45.095Z,83.60
2017-09-27T20:21:13.379Z,83.60
2017-09-27T20:23:41.824Z,84.00
2017-09-27T20:26:10.867Z,84.40
2017-09-27T20:28:39.130Z,85.00
2017-09-27T20:31:07.387Z,84.50
2017-09-27T20:33:35.639Z,84.60
2017-09-27T20:36:03.920Z,84.60
2017-09-27T20:38:32.230Z,84.80
2017-09-27T20:41:01.248Z,85.10
2017-09-27T20:43:29.515Z,85.10
2017-09-27T20:45:57.822Z,85.00
2017-09-27T20:48:26.105Z,85.00
2017-09-27T20:50:54.363Z,84.90
2017-09-27T20:53:22.620Z,85.30
2017-09-27T20:55:51.659Z,85.40
2017-09-27T20:58:19.910Z,85.30
2017-09-27T21:00:48.940Z,85.40
2017-09-27T21:03:17.223Z,85.30
2017-09-27T21:05:45.502Z,85.60
2017-09-27T21:08:13.747Z,85.60
2017-09-27T21:10:42.779Z,85.80
2017-09-27T21:13:11.065Z,85.80
2017-09-27T21:15:39.299Z,85.90
2017-09-27T21:18:08.319Z,86.00
2017-09-27T21:20:36.633Z,86.00
2017-09-27T21:23:04.900Z,86.20
2017-09-27T21:25:33.167Z,86.50
2017-09-27T21:28:01.415Z,86.70
2017-09-27T21:30:30.455Z,87.10
2017-09-27T21:32:58.774Z,87.00
2017-09-27T21:35:27.011Z,85.60
2017-09-27T21:37:55.403Z,84.90
2017-09-27T21:40:23.655Z,85.00
2017-09-27T21:42:51.922Z,85.50
2017-09-27T21:45:20.955Z,85.50
2017-09-27T21:47:49.223Z,85.50
2017-09-27T21:50:17.623Z,86.20
2017-09-27T21:52:45.899Z,86.90
2017-09-27T21:55:14.187Z,87.70
2017-09-27T21:57:42.480Z,89.10
2017-09-27T22:00:10.758Z,88.60
2017-09-27T22:02:39.033Z,88.80
2017-09-27T22:05:07.326Z,88.70
2017-09-27T22:07:35.589Z,88.80
2017-09-27T22:10:03.833Z,88.60
2017-09-27T22:12:32.162Z,88.70
2017-09-27T22:15:00.421Z,88.70
2017-09-27T22:17:28.694Z,89.00
2017-09-27T22:19:56.942Z,89.30
2017-09-27T22:22:26.723Z,89.50
2017-09-27T22:24:55.007Z,89.50
2017-09-27T22:27:23.300Z,89.50
2017-09-27T22:29:51.551Z,89.70
2017-09-27T22:32:19.814Z,89.80
2017-09-27T22:34:48.850Z,90.00
2017-09-27T22:37:17.127Z,90.00
2017-09-27T22:39:46.268Z,90.20
2017-09-27T22:42:14.559Z,90.30
2017-09-27T22:44:43.572Z,90.30
2017-09-27T22:47:12.629Z,89.90
2017-09-27T22:49:40.877Z,89.90
2017-09-27T22:52:09.120Z,89.50
2017-09-27T22:54:38.160Z,89.50
2017-09-27T22:57:06.443Z,89.40
2017-09-27T22:59:34.723Z,90.00
2017-09-27T23:02:03.006Z,90.10
2017-09-27T23:04:31.267Z,88.70
2017-09-27T23:06:59.518Z,88.20
2017-09-27T23:09:28.547Z,88.90
2017-09-27T23:11:56.807Z,88.90
2017-09-27T23:14:25.934Z,88.70
2017-09-27T23:16:54.264Z,88.70
2017-09-27T23:19:22.506Z,88.90
2017-09-27T23:21:50.758Z,88.60
2017-09-27T23:24:19.078Z,88.80
2017-09-27T23:26:47.355Z,89.00
2017-09-27T23:29:15.614Z,88.80
2017-09-27T23:31:44.018Z,89.30
2017-09-27T23:34:12.307Z,89.30
2017-09-27T23:36:40.575Z,89.60
2017-09-27T23:39:08.866Z,89.70
2017-09-27T23:41:37.149Z,90.10
2017-09-27T23:44:05.411Z,90.10
2017-09-27T23:46:33.706Z,90.10
2017-09-27T23:49:02.024Z,90.20
2017-09-27T23:51:30.252Z,90.40
2017-09-27T23:53:58.547Z,90.70
2017-09-27T23:56:26.822Z,90.90
2017-09-27T23:58:55.134Z,91.10
